»·PEaware :: AAL1613 KLAX-KPDX

AAL1613 :: KLAX-KPDX

FLIGHT INFORMATION

Flight Status: Arrived
Operator:
American Airlines
More flights by this operator :: More flights under this callsign
Pilot: Clay B. (17061)
Aircraft: BOEING 757-200
(B752)
More flights by this aircraft type
Origin: KLAX Los Angeles Intl
United States
Destination: KPDX Portland Intl
United States
More flights between these airports :: More routes between these airports
Route: LADYJ3 CSTRO DUCKE LMT MOXEE MOXEE6
File this flight plan on PilotEdge
Remarks: PBN / A1B3B4B5C4D4O4 DOF / 180104 REG / N537SB EET / KZOA0022 KZSE0106 OPR / AAL PER / D RMK / TCAS SIMBRIEF
Altitude:
(Current/Filed)
36,000ft
Speed:
(Current/Filed)
442kts
Departed: 04-Jan-18 03:10 PM
Arrived: 04-Jan-18 05:06 PM
Distance/Time
Traveled:
725nm/1:56
Distance/Time
To Go:
Arrived

Flight Plot

Page will automatically refresh every two minutes.

Flight plan parsing failed; only flown route is shown


Map Options




Map Legend


Flown Route
Filed Route
Departure Airport
Arrival Airport
Navaid (VOR, NDB)
Fix

Horizontal Profiles

Position Reports

Time Latitude Longitude Heading Altitude Ground
Speed
04-Jan-18 14:49 33.935414 -118.380442 80 103ft 0kts
04-Jan-18 14:50 33.935414 -118.380442 80 103ft 0kts
04-Jan-18 14:51 33.935414 -118.380442 80 103ft 0kts
04-Jan-18 14:52 33.935414 -118.380442 80 103ft 0kts
04-Jan-18 14:53 33.935414 -118.380442 80 103ft 0kts
04-Jan-18 14:54 33.935414 -118.380442 80 103ft 0kts
04-Jan-18 14:55 33.935414 -118.380442 80 103ft 0kts
04-Jan-18 14:56 33.935414 -118.380442 80 103ft 0kts
04-Jan-18 14:57 33.935414 -118.380442 80 103ft 0kts
04-Jan-18 14:58 33.935414 -118.380442 80 103ft 0kts
04-Jan-18 14:59 33.935414 -118.380442 80 103ft 0kts
04-Jan-18 15:00 33.935414 -118.380442 80 103ft 0kts
04-Jan-18 15:01 33.935414 -118.380442 80 103ft 0kts
04-Jan-18 15:02 33.935414 -118.380442 80 103ft 0kts
04-Jan-18 15:03 33.935414 -118.380442 80 103ft 0kts
04-Jan-18 15:04 33.935325 -118.381073 80 103ft 0kts
04-Jan-18 15:05 33.935109 -118.381265 359 103ft 0kts
04-Jan-18 15:06 33.935110 -118.381265 359 103ft 0kts
04-Jan-18 15:07 33.935110 -118.381265 359 103ft 0kts
04-Jan-18 15:08 33.935723 -118.381282 355 103ft 6kts
04-Jan-18 15:09 33.936160 -118.381765 278 103ft 0kts
04-Jan-18 15:10 33.936160 -118.381765 278 103ft 0kts
04-Jan-18 15:11 33.936160 -118.381765 278 103ft 0kts
04-Jan-18 15:12 33.936160 -118.381765 278 103ft 0kts
04-Jan-18 15:13 33.936282 -118.382551 313 103ft 0kts
04-Jan-18 15:14 33.936788 -118.382786 349 103ft 7kts
04-Jan-18 15:15 33.937280 -118.383153 271 103ft 0kts
04-Jan-18 15:16 33.935243 -118.403287 264 304ft 156kts
04-Jan-18 15:17 33.929767 -118.458407 263 2364ft 187kts
04-Jan-18 15:18 33.926290 -118.508208 275 3281ft 251kts
04-Jan-18 15:19 33.922188 -118.587417 260 5840ft 258kts
04-Jan-18 15:20 33.953511 -118.655859 330 6102ft 284kts
04-Jan-18 15:21 34.026980 -118.675606 1 6512ft 282kts
04-Jan-18 15:22 34.103023 -118.665987 8 9700ft 286kts
04-Jan-18 15:23 34.189507 -118.645456 8 11342ft 362kts
04-Jan-18 15:24 34.289951 -118.643429 346 14664ft 374kts
04-Jan-18 15:25 34.394336 -118.666814 345 17753ft 390kts
04-Jan-18 15:26 34.503048 -118.689069 346 20475ft 407kts
04-Jan-18 15:27 34.616296 -118.711182 346 22910ft 421kts
04-Jan-18 15:28 34.721541 -118.736531 333 24902ft 426kts
04-Jan-18 15:29 34.826168 -118.804802 326 26794ft 433kts
04-Jan-18 15:30 34.932330 -118.877542 325 28461ft 444kts
04-Jan-18 15:31 35.040890 -118.952382 324 29907ft 456kts
04-Jan-18 15:32 35.147852 -119.026420 324 31020ft 470kts
04-Jan-18 15:33 35.261929 -119.105569 323 32551ft 470kts
04-Jan-18 15:34 35.374583 -119.184013 323 34092ft 466kts
04-Jan-18 15:35 35.492287 -119.249961 337 35413ft 477kts
04-Jan-18 15:36 35.619090 -119.293864 337 36173ft 475kts
04-Jan-18 15:37 35.746216 -119.337672 337 36174ft 474kts
04-Jan-18 15:38 35.872640 -119.381326 337 36171ft 474kts
04-Jan-18 15:39 35.999034 -119.425113 337 36181ft 475kts
04-Jan-18 15:40 36.121513 -119.467666 337 36175ft 474kts
04-Jan-18 15:41 36.245969 -119.511053 337 36175ft 474kts
04-Jan-18 15:42 36.372591 -119.555354 337 36176ft 473kts
04-Jan-18 15:43 36.499090 -119.599762 337 36177ft 474kts
04-Jan-18 15:44 36.625323 -119.644225 337 36174ft 474kts
04-Jan-18 15:45 36.747232 -119.687296 336 36184ft 473kts
04-Jan-18 15:46 36.873295 -119.731998 336 36187ft 473kts
04-Jan-18 15:47 36.999860 -119.777026 336 36188ft 473kts
04-Jan-18 15:48 37.121049 -119.820266 336 36181ft 471kts
04-Jan-18 15:49 37.244758 -119.864605 336 36174ft 471kts
04-Jan-18 15:50 37.370151 -119.909681 336 36172ft 471kts
04-Jan-18 15:51 37.495740 -119.954977 336 36170ft 470kts
04-Jan-18 15:52 37.621176 -120.000386 336 36146ft 472kts
04-Jan-18 15:53 37.746951 -120.046077 336 36026ft 472kts
04-Jan-18 15:54 37.872148 -120.091711 336 36088ft 471kts
04-Jan-18 15:55 37.997879 -120.137005 336 36149ft 470kts
04-Jan-18 15:56 38.120218 -120.181069 336 36145ft 471kts
04-Jan-18 15:57 38.244238 -120.225877 336 36144ft 470kts
04-Jan-18 15:58 38.369594 -120.271350 336 36139ft 472kts
04-Jan-18 15:59 38.495551 -120.317192 336 36164ft 472kts
04-Jan-18 16:00 38.621336 -120.363146 336 36181ft 472kts
04-Jan-18 16:01 38.747140 -120.409272 336 36176ft 472kts
04-Jan-18 16:02 38.872368 -120.455359 336 36174ft 471kts
04-Jan-18 16:03 38.998428 -120.501888 336 36194ft 470kts
04-Jan-18 16:04 39.119282 -120.546711 335 36201ft 470kts
04-Jan-18 16:05 39.240562 -120.591830 335 36200ft 470kts
04-Jan-18 16:06 39.365431 -120.638457 335 36201ft 470kts
04-Jan-18 16:07 39.484643 -120.683135 335 36214ft 469kts
04-Jan-18 16:08 39.609550 -120.730116 335 36214ft 469kts
04-Jan-18 16:09 39.734194 -120.777174 335 36202ft 469kts
04-Jan-18 16:10 39.859194 -120.824545 335 36193ft 469kts
04-Jan-18 16:11 39.983989 -120.872018 335 36183ft 469kts
04-Jan-18 16:12 40.105881 -120.918562 335 36178ft 469kts
04-Jan-18 16:13 40.227734 -120.965267 335 36172ft 469kts
04-Jan-18 16:14 40.353219 -121.013550 335 36172ft 472kts
04-Jan-18 16:15 40.479315 -121.062256 335 36173ft 476kts
04-Jan-18 16:16 40.592624 -121.106180 335 36173ft 478kts
04-Jan-18 16:17 40.716409 -121.154353 335 36173ft 483kts
04-Jan-18 16:18 40.845211 -121.204666 335 36168ft 485kts
04-Jan-18 16:19 40.974194 -121.255250 335 36140ft 485kts
04-Jan-18 16:20 41.100085 -121.304832 335 36139ft 479kts
04-Jan-18 16:21 41.222335 -121.353174 335 36131ft 479kts
04-Jan-18 16:22 41.349901 -121.403811 335 36124ft 480kts
04-Jan-18 16:23 41.476997 -121.454465 335 36103ft 479kts
04-Jan-18 16:24 41.604753 -121.505607 335 36106ft 479kts
04-Jan-18 16:25 41.731901 -121.556705 335 36105ft 479kts
04-Jan-18 16:26 41.859138 -121.608051 335 36106ft 479kts
04-Jan-18 16:27 41.983256 -121.658349 334 36117ft 479kts
04-Jan-18 16:28 42.106551 -121.708510 334 36117ft 478kts
04-Jan-18 16:29 42.229207 -121.765207 331 36109ft 474kts
04-Jan-18 16:30 42.352940 -121.826989 331 36109ft 475kts
04-Jan-18 16:31 42.476112 -121.888656 331 36110ft 473kts
04-Jan-18 16:32 42.599405 -121.950649 331 36111ft 475kts
04-Jan-18 16:33 42.722605 -122.012844 331 36110ft 473kts
04-Jan-18 16:34 42.846011 -122.075422 331 36112ft 474kts
04-Jan-18 16:35 42.968723 -122.137949 332 36076ft 471kts
04-Jan-18 16:36 43.070772 -122.190125 333 36020ft 468kts
04-Jan-18 16:37 43.187252 -122.249846 332 36013ft 469kts
04-Jan-18 16:38 43.308881 -122.312503 332 36019ft 468kts
04-Jan-18 16:39 43.450476 -122.385814 332 36029ft 469kts
04-Jan-18 16:40 43.551743 -122.438463 332 36028ft 468kts
04-Jan-18 16:41 43.668182 -122.499159 332 34664ft 433kts
04-Jan-18 16:42 43.778783 -122.557184 332 32398ft 424kts
04-Jan-18 16:43 43.892413 -122.617058 333 30187ft 448kts
04-Jan-18 16:44 44.005349 -122.676642 333 28036ft 437kts
04-Jan-18 16:45 44.109108 -122.731674 333 26011ft 426kts
04-Jan-18 16:46 44.223177 -122.745476 359 24611ft 431kts
04-Jan-18 16:47 44.341007 -122.734298 359 22901ft 419kts
04-Jan-18 16:48 44.455173 -122.723045 0 21022ft 407kts
04-Jan-18 16:49 44.566280 -122.712019 0 18988ft 395kts
04-Jan-18 16:50 44.673707 -122.701278 0 17106ft 382kts
04-Jan-18 16:51 44.778146 -122.690791 1 15266ft 371kts
04-Jan-18 16:52 44.878799 -122.680631 1 13495ft 360kts
04-Jan-18 16:53 44.977012 -122.670710 1 11782ft 350kts
04-Jan-18 16:54 45.071404 -122.661053 0 9982ft 311kts
04-Jan-18 16:55 45.146299 -122.653480 0 8870ft 279kts
04-Jan-18 16:56 45.221487 -122.645826 0 8682ft 271kts
04-Jan-18 16:57 45.296324 -122.638168 0 8682ft 270kts
04-Jan-18 16:58 45.373698 -122.630255 4 8533ft 292kts
04-Jan-18 16:59 45.457310 -122.633209 330 6367ft 314kts
04-Jan-18 17:00 45.499600 -122.725078 292 4993ft 251kts
04-Jan-18 17:01 45.528445 -122.813385 292 4985ft 243kts
04-Jan-18 17:02 45.556988 -122.900893 293 3991ft 237kts
04-Jan-18 17:03 45.608365 -122.939669 355 3991ft 224kts
04-Jan-18 17:04 45.669603 -122.940921 19 3858ft 225kts
04-Jan-18 17:05 45.721160 -122.895949 73 2985ft 214kts
04-Jan-18 17:06 45.691223 -122.830171 129 2862ft 206kts
04-Jan-18 17:07 45.664137 -122.771942 121 2202ft 167kts
04-Jan-18 17:08 45.643366 -122.720223 120 1970ft 141kts
04-Jan-18 17:09 45.627204 -122.678738 118 1291ft 120kts
04-Jan-18 17:10 45.610346 -122.635399 117 674ft 122kts
04-Jan-18 17:11 45.593687 -122.592809 118 48ft 114kts
04-Jan-18 17:12 45.586540 -122.576245 202 40ft 11kts
04-Jan-18 17:13 45.587125 -122.579185 298 40ft 7kts
04-Jan-18 17:14 45.589552 -122.585494 285 40ft 11kts
04-Jan-18 17:15 45.590147 -122.589142 303 41ft 9kts
04-Jan-18 17:16 45.590402 -122.591430 210 40ft 6kts
04-Jan-18 17:17 45.590267 -122.591542 209 40ft 0kts
04-Jan-18 17:18 45.590267 -122.591542 209 41ft 0kts
04-Jan-18 17:19 45.590267 -122.591542 210 41ft 0kts
04-Jan-18 17:20 45.590267 -122.591542 209 41ft 0kts
04-Jan-18 17:21 45.590267 -122.591542 209 41ft 0kts

Navigation Log

Ident Type
Flight plan parsing failed, navigation log unavailable